createdAt,value
2018-09-17T00:00:59.554Z,16.93
2018-09-17T00:03:27.898Z,16.43
2018-09-17T00:05:56.120Z,16.47
2018-09-17T00:08:24.321Z,16.20
2018-09-17T00:10:52.538Z,17.70
2018-09-17T00:13:20.732Z,17.77
2018-09-17T00:15:49.023Z,15.77
2018-09-17T00:18:17.214Z,16.27
2018-09-17T00:20:45.356Z,15.60
2018-09-17T00:23:13.476Z,14.57
2018-09-17T00:25:41.583Z,15.70
2018-09-17T00:28:10.449Z,16.10
2018-09-17T00:30:38.691Z,15.13
2018-09-17T00:33:06.810Z,16.23
2018-09-17T00:35:35.140Z,16.43
2018-09-17T00:38:03.335Z,15.47
2018-09-17T00:40:31.530Z,15.53
2018-09-17T00:43:00.300Z,16.90
2018-09-17T00:45:28.853Z,17.17
2018-09-17T00:47:57.369Z,18.27
2018-09-17T00:50:25.960Z,18.40
2018-09-17T00:52:54.647Z,19.13
2018-09-17T00:55:23.040Z,16.90
2018-09-17T00:57:51.981Z,18.90
2018-09-17T01:00:20.822Z,17.67
2018-09-17T01:02:49.667Z,18.83
2018-09-17T01:05:18.107Z,19.50
2018-09-17T01:07:46.366Z,16.40
2018-09-17T01:10:15.108Z,14.93
2018-09-17T01:12:44.880Z,16.40
2018-09-17T01:15:13.720Z,15.73
2018-09-17T01:17:42.052Z,16.07
2018-09-17T01:20:10.370Z,17.37
2018-09-17T01:22:39.054Z,16.20
2018-09-17T01:25:07.422Z,14.90
2018-09-17T01:27:35.817Z,16.10
2018-09-17T01:30:04.699Z,16.27
2018-09-17T01:32:32.956Z,15.10
2018-09-17T01:35:01.236Z,15.00
2018-09-17T01:37:29.528Z,18.80
2018-09-17T01:39:57.679Z,21.70
2018-09-17T01:42:25.926Z,18.50
2018-09-17T01:44:54.036Z,17.50
2018-09-17T01:47:22.090Z,17.90
2018-09-17T01:49:50.274Z,15.50
2018-09-17T01:52:18.581Z,15.33
2018-09-17T01:54:46.694Z,15.07
2018-09-17T01:57:14.822Z,15.43
2018-09-17T01:59:42.982Z,14.93
2018-09-17T02:02:11.326Z,15.67
2018-09-17T02:04:39.547Z,15.47
2018-09-17T02:07:08.294Z,13.93
2018-09-17T02:09:40.792Z,14.80
2018-09-17T02:12:11.251Z,14.00
2018-09-17T02:14:40.740Z,13.23
2018-09-17T02:17:08.986Z,15.07
2018-09-17T02:19:38.430Z,16.20
2018-09-17T02:22:06.953Z,15.20
2018-09-17T02:24:35.170Z,15.57
2018-09-17T02:27:03.662Z,14.97
2018-09-17T02:29:31.914Z,15.40
2018-09-17T02:32:00.898Z,15.47
2018-09-17T02:34:29.714Z,14.23
2018-09-17T02:36:58.343Z,17.67
2018-09-17T02:39:26.987Z,19.70
2018-09-17T02:41:55.480Z,19.27
2018-09-17T02:44:23.961Z,15.63
2018-09-17T02:46:52.391Z,15.50
2018-09-17T02:49:20.683Z,15.43
2018-09-17T02:51:49.042Z,14.20
2018-09-17T02:54:17.505Z,14.70
2018-09-17T02:56:45.778Z,14.43
2018-09-17T02:59:14.068Z,15.10
2018-09-17T03:01:42.148Z,14.50
2018-09-17T03:04:10.207Z,15.43
2018-09-17T03:06:38.422Z,16.10
2018-09-17T03:09:07.225Z,15.60
2018-09-17T03:11:35.471Z,14.37
2018-09-17T03:14:03.571Z,13.90
2018-09-17T03:16:31.676Z,13.53
2018-09-17T03:18:59.991Z,14.00
2018-09-17T03:21:28.114Z,14.70
2018-09-17T03:23:56.360Z,13.80
2018-09-17T03:26:24.536Z,16.23
2018-09-17T03:28:52.967Z,15.57
2018-09-17T03:31:25.226Z,13.10
2018-09-17T03:33:53.742Z,13.60
2018-09-17T03:36:22.246Z,13.50
2018-09-17T03:38:50.720Z,13.20
2018-09-17T03:41:19.937Z,14.97
2018-09-17T03:43:49.717Z,12.33
2018-09-17T03:46:18.078Z,14.00
2018-09-17T03:48:50.171Z,15.13
2018-09-17T03:51:18.515Z,13.50
2018-09-17T03:53:46.584Z,14.20
2018-09-17T03:56:14.636Z,14.30
2018-09-17T03:58:42.694Z,13.37
2018-09-17T04:01:10.749Z,13.43
2018-09-17T04:03:38.810Z,15.27
2018-09-17T04:06:06.855Z,15.47
2018-09-17T04:08:34.899Z,14.67
2018-09-17T04:11:02.943Z,13.40
2018-09-17T04:13:31.016Z,13.20
2018-09-17T04:15:59.062Z,14.07
2018-09-17T04:18:27.132Z,14.03
2018-09-17T04:20:55.185Z,13.60
2018-09-17T04:23:28.636Z,13.77
2018-09-17T04:25:56.690Z,14.13
2018-09-17T04:28:24.734Z,15.63
2018-09-17T04:30:52.783Z,14.77
2018-09-17T04:33:20.845Z,15.57
2018-09-17T04:35:48.902Z,15.30
2018-09-17T04:38:16.967Z,15.77
2018-09-17T04:40:45.049Z,15.93
2018-09-17T04:43:13.119Z,14.03
2018-09-17T04:45:41.174Z,14.33
2018-09-17T04:48:09.223Z,15.03
2018-09-17T04:50:37.257Z,14.90
2018-09-17T04:53:05.298Z,12.50
2018-09-17T04:55:33.358Z,12.10
2018-09-17T04:58:01.410Z,10.57
2018-09-17T05:00:29.476Z,12.60
2018-09-17T05:02:57.503Z,13.07
2018-09-17T05:05:25.567Z,12.40
2018-09-17T05:07:53.619Z,13.77
2018-09-17T05:10:21.674Z,11.67
2018-09-17T05:12:49.772Z,13.00
2018-09-17T05:15:17.787Z,13.60
2018-09-17T05:17:45.823Z,11.37
2018-09-17T05:20:13.894Z,12.93
2018-09-17T05:22:41.955Z,12.83
2018-09-17T05:25:10.014Z,13.60
2018-09-17T05:27:38.110Z,14.00
2018-09-17T05:30:06.262Z,13.20
2018-09-17T05:32:34.283Z,13.80
2018-09-17T05:35:03.716Z,12.10
2018-09-17T05:37:32.406Z,14.30
2018-09-17T05:40:00.657Z,13.97
2018-09-17T05:42:28.910Z,15.33
2018-09-17T05:44:57.057Z,15.27
2018-09-17T05:47:25.280Z,14.00
2018-09-17T05:49:53.440Z,13.63
2018-09-17T05:52:21.764Z,14.17
2018-09-17T05:54:50.208Z,14.30
2018-09-17T05:57:18.383Z,11.70
2018-09-17T05:59:46.681Z,10.23
2018-09-17T06:02:15.022Z,11.10
2018-09-17T06:04:43.318Z,11.27
2018-09-17T06:07:11.538Z,10.23
2018-09-17T06:09:39.667Z,11.73
2018-09-17T06:12:07.756Z,10.63
2018-09-17T06:14:35.835Z,11.87
2018-09-17T06:17:03.823Z,13.20
2018-09-17T06:19:31.880Z,12.67
2018-09-17T06:21:59.932Z,14.60
2018-09-17T06:24:27.975Z,12.17
2018-09-17T06:26:56.006Z,13.30
2018-09-17T06:29:24.039Z,13.30
2018-09-17T06:31:52.134Z,14.20
2018-09-17T06:34:20.183Z,11.77
2018-09-17T06:36:48.244Z,13.57
2018-09-17T06:39:16.382Z,12.47
2018-09-17T06:41:44.419Z,11.70
2018-09-17T06:44:12.603Z,13.07
2018-09-17T06:46:40.781Z,13.43
2018-09-17T06:49:08.860Z,12.20
2018-09-17T06:51:37.106Z,11.80
2018-09-17T06:54:05.150Z,11.90
2018-09-17T06:56:34.874Z,11.80
2018-09-17T06:59:06.620Z,11.10
2018-09-17T07:01:35.026Z,11.20
2018-09-17T07:04:29.862Z,11.70
2018-09-17T07:06:58.279Z,11.03
2018-09-17T07:09:26.806Z,10.23
2018-09-17T07:11:55.246Z,9.80
2018-09-17T07:14:23.597Z,9.47
2018-09-17T07:16:51.968Z,9.73
2018-09-17T07:19:20.220Z,8.60
2018-09-17T07:21:50.248Z,9.67
2018-09-17T07:24:18.613Z,8.60
2018-09-17T07:26:48.796Z,8.40
2018-09-17T07:29:17.093Z,9.07
2018-09-17T07:31:45.534Z,8.27
2018-09-17T07:34:13.955Z,7.70
2018-09-17T07:36:42.368Z,7.77
2018-09-17T07:39:11.737Z,8.27
2018-09-17T07:41:40.002Z,9.13
2018-09-17T07:44:08.350Z,7.43
2018-09-17T07:46:36.700Z,8.60
2018-09-17T07:49:05.076Z,6.87
2018-09-17T07:51:33.221Z,6.83
2018-09-17T07:54:01.629Z,7.70
2018-09-17T07:56:30.418Z,8.73
2018-09-17T07:58:58.847Z,7.30
2018-09-17T08:01:27.264Z,6.23
2018-09-17T08:03:55.559Z,6.03
2018-09-17T08:06:23.796Z,6.87
2018-09-17T08:08:52.198Z,5.10
2018-09-17T08:11:20.735Z,5.27
2018-09-17T08:13:49.081Z,5.20
2018-09-17T08:16:17.519Z,4.50
2018-09-17T08:18:45.837Z,5.13
2018-09-17T08:21:14.189Z,4.57
2018-09-17T08:23:42.428Z,5.40
2018-09-17T08:26:10.832Z,4.43
2018-09-17T08:28:39.152Z,4.33
2018-09-17T08:31:07.448Z,4.30
2018-09-17T08:33:36.084Z,4.60
2018-09-17T08:36:04.324Z,4.17
2018-09-17T08:38:32.690Z,4.27
2018-09-17T08:41:00.976Z,5.07
2018-09-17T08:43:29.471Z,4.53
2018-09-17T08:45:57.829Z,4.33
2018-09-17T08:48:26.233Z,4.13
2018-09-17T08:50:54.525Z,4.50
2018-09-17T08:53:23.163Z,4.20
2018-09-17T08:55:56.930Z,4.70
2018-09-17T08:58:26.483Z,5.17
2018-09-17T09:00:55.944Z,4.97
2018-09-17T09:03:31.609Z,4.87
2018-09-17T09:06:05.358Z,5.37
2018-09-17T09:08:33.694Z,5.40
2018-09-17T09:11:07.436Z,5.33
2018-09-17T09:13:41.004Z,5.43
2018-09-17T09:16:09.720Z,5.97
2018-09-17T09:18:38.243Z,4.73
2018-09-17T09:21:07.791Z,4.50
2018-09-17T09:23:36.188Z,4.77
2018-09-17T09:26:04.512Z,5.20
2018-09-17T09:28:32.870Z,5.10
2018-09-17T09:31:01.987Z,4.00
2018-09-17T09:33:30.562Z,4.20
2018-09-17T09:35:58.918Z,4.00
2018-09-17T09:38:27.303Z,3.77
2018-09-17T09:40:55.738Z,4.03
2018-09-17T09:43:24.148Z,3.90
2018-09-17T09:45:52.528Z,3.80
2018-09-17T09:48:21.063Z,3.27
2018-09-17T09:50:49.343Z,4.53
2018-09-17T09:53:17.621Z,3.70
2018-09-17T09:55:45.928Z,3.63
2018-09-17T09:58:14.551Z,3.70
2018-09-17T10:00:48.685Z,3.03
2018-09-17T10:03:21.895Z,3.70
2018-09-17T10:05:50.507Z,3.40
2018-09-17T10:08:18.914Z,3.20
2018-09-17T10:10:52.789Z,2.97
2018-09-17T10:13:26.562Z,3.00
2018-09-17T10:15:56.369Z,3.37
2018-09-17T10:18:30.209Z,2.77
2018-09-17T10:20:59.247Z,2.37
2018-09-17T10:23:27.785Z,2.70
2018-09-17T10:25:55.859Z,2.43
2018-09-17T10:28:23.914Z,2.10
2018-09-17T10:30:51.912Z,2.10
2018-09-17T10:33:21.981Z,2.50
2018-09-17T10:35:50.041Z,2.63
2018-09-17T10:38:18.091Z,2.80
2018-09-17T10:40:46.127Z,2.27
2018-09-17T10:43:14.187Z,2.77
2018-09-17T10:45:42.234Z,2.37
2018-09-17T10:48:10.272Z,2.30
2018-09-17T10:50:38.327Z,2.40
2018-09-17T10:53:06.404Z,1.90
2018-09-17T10:55:34.465Z,2.10
2018-09-17T10:58:02.508Z,2.27
2018-09-17T11:00:30.515Z,2.90
2018-09-17T11:02:58.616Z,2.10
2018-09-17T11:05:26.662Z,2.20
2018-09-17T11:07:54.724Z,2.00
2018-09-17T11:10:22.795Z,2.27
2018-09-17T11:12:50.835Z,2.17
2018-09-17T11:15:18.896Z,1.60
2018-09-17T11:17:46.969Z,2.20
2018-09-17T11:20:15.030Z,2.23
2018-09-17T11:22:43.083Z,2.23
2018-09-17T11:25:11.244Z,2.27
2018-09-17T11:27:39.232Z,2.37
2018-09-17T11:30:07.301Z,1.80
2018-09-17T11:32:35.355Z,2.50
2018-09-17T11:35:03.433Z,2.53
2018-09-17T11:37:31.484Z,3.10
2018-09-17T11:39:59.555Z,2.53
2018-09-17T11:42:27.615Z,2.70
2018-09-17T11:44:55.655Z,2.77
2018-09-17T11:47:23.725Z,2.70
2018-09-17T11:49:51.763Z,3.00
2018-09-17T11:52:19.824Z,3.00
2018-09-17T11:54:47.867Z,2.40
2018-09-17T11:57:15.925Z,2.50
2018-09-17T11:59:44.145Z,2.73
2018-09-17T12:02:18.609Z,2.60
2018-09-17T12:04:52.150Z,2.37
2018-09-17T12:07:25.733Z,2.47
2018-09-17T12:09:53.807Z,2.50
2018-09-17T12:12:21.862Z,3.07
2018-09-17T12:14:49.913Z,2.27
2018-09-17T12:17:17.955Z,2.67
2018-09-17T12:19:46.007Z,2.73
2018-09-17T12:22:14.077Z,2.30
2018-09-17T12:24:42.124Z,2.90
2018-09-17T12:27:10.192Z,2.80
2018-09-17T12:29:38.245Z,3.40
2018-09-17T12:32:06.425Z,3.17
2018-09-17T12:34:34.747Z,3.10
2018-09-17T12:37:02.796Z,2.60
2018-09-17T12:39:30.822Z,3.00
2018-09-17T12:41:58.880Z,4.43
2018-09-17T12:44:26.916Z,3.07
2018-09-17T12:46:55.080Z,3.80
2018-09-17T12:49:23.127Z,3.30
2018-09-17T12:51:51.180Z,3.03
2018-09-17T12:54:19.265Z,3.07
2018-09-17T12:56:47.285Z,2.67
2018-09-17T12:59:15.324Z,2.77
2018-09-17T13:01:44.252Z,3.13
2018-09-17T13:04:12.322Z,2.77
2018-09-17T13:06:40.345Z,3.07
2018-09-17T13:09:09.650Z,3.27
2018-09-17T13:11:37.751Z,3.40
2018-09-17T13:14:05.905Z,3.10
2018-09-17T13:16:33.996Z,3.30
2018-09-17T13:19:02.075Z,2.80
2018-09-17T13:21:30.129Z,2.50
2018-09-17T13:23:58.260Z,3.20
2018-09-17T13:26:26.320Z,2.60
2018-09-17T13:28:54.415Z,3.30
2018-09-17T13:31:22.474Z,3.20
2018-09-17T13:33:50.534Z,2.93
2018-09-17T13:36:18.613Z,2.90
2018-09-17T13:38:46.665Z,2.40
2018-09-17T13:41:14.713Z,2.53
2018-09-17T13:43:42.772Z,2.70
2018-09-17T13:46:10.812Z,3.40
2018-09-17T13:48:38.897Z,3.60
2018-09-17T13:51:06.934Z,3.43
2018-09-17T13:53:35.155Z,3.17
2018-09-17T13:56:03.578Z,3.47
2018-09-17T13:58:31.711Z,3.60
2018-09-17T14:01:02.138Z,3.20
2018-09-17T14:03:30.177Z,3.30
2018-09-17T14:05:58.226Z,3.10
2018-09-17T14:08:26.335Z,3.30
2018-09-17T14:10:54.363Z,3.20
2018-09-17T14:13:22.454Z,3.57
2018-09-17T14:15:55.870Z,4.20
2018-09-17T14:18:23.928Z,4.20
2018-09-17T14:20:51.988Z,4.50
2018-09-17T14:23:20.135Z,4.13
2018-09-17T14:25:48.320Z,3.67
2018-09-17T14:28:16.561Z,4.70
2018-09-17T14:30:45.128Z,4.83
2018-09-17T14:33:19.194Z,5.00
2018-09-17T14:35:48.719Z,5.17
2018-09-17T14:38:17.307Z,5.60
2018-09-17T14:40:45.640Z,5.83
2018-09-17T14:43:13.968Z,5.27
2018-09-17T14:45:42.667Z,5.70
2018-09-17T14:48:15.120Z,5.10
2018-09-17T14:50:43.367Z,5.10
2018-09-17T14:53:11.607Z,4.57
2018-09-17T14:55:40.417Z,5.30
2018-09-17T14:58:11.770Z,5.57
2018-09-17T15:00:40.386Z,6.20
2018-09-17T15:03:09.247Z,5.77
2018-09-17T15:05:41.352Z,6.73
2018-09-17T15:08:10.383Z,5.30
2018-09-17T15:10:41.610Z,5.93
2018-09-17T15:13:10.780Z,6.00
2018-09-17T15:15:44.967Z,6.23
2018-09-17T15:18:16.229Z,6.10
2018-09-17T15:20:44.969Z,5.90
2018-09-17T15:23:14.840Z,5.80
2018-09-17T15:25:43.909Z,6.27
2018-09-17T15:28:13.063Z,6.60
2018-09-17T15:30:42.289Z,6.10
2018-09-17T15:33:11.953Z,5.70
2018-09-17T15:35:44.658Z,5.80
2018-09-17T15:38:13.517Z,6.33
2018-09-17T15:40:43.010Z,5.30
2018-09-17T15:43:11.400Z,5.80
2018-09-17T15:45:39.721Z,4.80
2018-09-17T15:48:07.804Z,5.43
2018-09-17T15:50:35.883Z,5.47
2018-09-17T15:53:03.948Z,5.67
2018-09-17T15:55:32.024Z,5.93
2018-09-17T15:58:00.102Z,5.13
2018-09-17T16:00:28.136Z,5.67
2018-09-17T16:02:56.319Z,5.57
2018-09-17T16:05:24.624Z,5.77
2018-09-17T16:07:53.005Z,5.30
2018-09-17T16:10:21.400Z,5.60
2018-09-17T16:12:50.291Z,4.77
2018-09-17T16:15:22.075Z,5.37
2018-09-17T16:17:51.079Z,4.97
2018-09-17T16:20:22.061Z,5.20
2018-09-17T16:22:50.596Z,5.27
2018-09-17T16:25:18.987Z,6.10
2018-09-17T16:27:47.445Z,5.30
2018-09-17T16:30:15.589Z,4.83
2018-09-17T16:32:44.325Z,6.97
2018-09-17T16:35:12.651Z,5.83
2018-09-17T16:37:40.965Z,5.70
2018-09-17T16:40:09.239Z,5.17
2018-09-17T16:42:37.478Z,5.07
2018-09-17T16:45:05.933Z,5.40
2018-09-17T16:47:34.377Z,4.93
2018-09-17T16:50:02.725Z,4.83
2018-09-17T16:52:30.998Z,5.30
2018-09-17T16:54:59.270Z,5.17
2018-09-17T16:57:27.829Z,5.03
2018-09-17T16:59:57.164Z,5.40
2018-09-17T17:02:25.827Z,4.50
2018-09-17T17:04:54.244Z,5.23
2018-09-17T17:07:22.638Z,5.20
2018-09-17T17:09:51.430Z,4.83
2018-09-17T17:12:19.690Z,5.90
2018-09-17T17:14:47.791Z,6.00
2018-09-17T17:17:15.954Z,6.37
2018-09-17T17:19:44.756Z,5.50
2018-09-17T17:22:13.026Z,5.43
2018-09-17T17:24:41.089Z,7.20
2018-09-17T17:27:09.206Z,5.40
2018-09-17T17:29:37.345Z,6.17
2018-09-17T17:32:05.813Z,6.90
2018-09-17T17:34:34.360Z,5.80
2018-09-17T17:37:02.569Z,5.83
2018-09-17T17:39:30.763Z,7.20
2018-09-17T17:41:58.846Z,6.30
2018-09-17T17:44:27.028Z,7.33
2018-09-17T17:46:55.259Z,8.07
2018-09-17T17:49:23.428Z,6.77
2018-09-17T17:51:51.744Z,7.30
2018-09-17T17:54:19.813Z,8.03
2018-09-17T17:56:47.966Z,6.47
2018-09-17T17:59:16.136Z,7.20
2018-09-17T18:01:45.378Z,7.33
2018-09-17T18:04:13.526Z,7.03
2018-09-17T18:06:41.735Z,6.63
2018-09-17T18:09:10.524Z,6.67
2018-09-17T18:11:39.001Z,6.90
2018-09-17T18:14:07.337Z,7.77
2018-09-17T18:16:35.504Z,6.93
2018-09-17T18:19:03.773Z,7.00
2018-09-17T18:21:32.110Z,7.70
2018-09-17T18:24:00.477Z,8.43
2018-09-17T18:26:29.730Z,8.20
2018-09-17T18:28:58.319Z,8.07
2018-09-17T18:31:26.516Z,8.43
2018-09-17T18:33:54.698Z,8.07
2018-09-17T18:36:23.088Z,7.90
2018-09-17T18:38:51.318Z,6.60
2018-09-17T18:41:19.615Z,7.87
2018-09-17T18:43:47.765Z,7.43
2018-09-17T18:46:16.056Z,7.80
2018-09-17T18:48:44.335Z,9.40
2018-09-17T18:51:12.586Z,8.60
2018-09-17T18:53:40.964Z,9.00
2018-09-17T18:56:09.261Z,8.17
2018-09-17T18:58:37.482Z,7.90
2018-09-17T19:01:05.743Z,9.27
2018-09-17T19:03:33.935Z,8.20
2018-09-17T19:06:02.298Z,9.43
2018-09-17T19:08:30.501Z,9.30
2018-09-17T19:10:58.675Z,8.23
2018-09-17T19:13:27.251Z,8.43
2018-09-17T19:15:56.918Z,10.67
2018-09-17T19:18:25.091Z,9.40
2018-09-17T19:20:53.547Z,9.60
2018-09-17T19:23:26.667Z,9.20
2018-09-17T19:25:55.551Z,9.77
2018-09-17T19:28:29.075Z,10.57
2018-09-17T19:30:57.220Z,9.53
2018-09-17T19:33:25.321Z,9.50
2018-09-17T19:35:53.471Z,9.63
2018-09-17T19:38:26.853Z,8.30
2018-09-17T19:40:55.167Z,9.23
2018-09-17T19:43:23.403Z,8.77
2018-09-17T19:45:56.900Z,9.53
2018-09-17T19:48:24.890Z,9.30
2018-09-17T19:50:58.310Z,8.33
2018-09-17T19:53:26.438Z,8.73
2018-09-17T19:55:55.931Z,9.43
2018-09-17T19:58:30.260Z,10.80
2018-09-17T20:00:58.419Z,10.60
2018-09-17T20:03:26.411Z,10.40
2018-09-17T20:06:00.004Z,11.00
2018-09-17T20:08:28.172Z,10.50
2018-09-17T20:10:58.219Z,11.90
2018-09-17T20:13:26.304Z,10.83
2018-09-17T20:16:00.569Z,10.10
2018-09-17T20:18:28.832Z,11.00
2018-09-17T20:20:56.990Z,10.57
2018-09-17T20:23:25.127Z,10.63
2018-09-17T20:25:53.244Z,11.20
2018-09-17T20:28:21.436Z,10.87
2018-09-17T20:30:49.632Z,10.80
2018-09-17T20:33:18.181Z,10.70
2018-09-17T20:35:46.441Z,10.80
2018-09-17T20:38:14.665Z,11.10
2018-09-17T20:40:42.774Z,9.37
2018-09-17T20:43:10.915Z,9.93
2018-09-17T20:45:39.121Z,10.07
2018-09-17T20:48:07.271Z,9.57
2018-09-17T20:50:35.312Z,10.00
2018-09-17T20:53:03.371Z,9.80
2018-09-17T20:55:31.485Z,9.70
2018-09-17T20:57:59.566Z,9.43
2018-09-17T21:00:27.675Z,11.23
2018-09-17T21:02:55.786Z,9.43
2018-09-17T21:05:23.927Z,10.40
2018-09-17T21:07:52.053Z,11.67
2018-09-17T21:10:20.193Z,9.43
2018-09-17T21:12:48.321Z,9.80
2018-09-17T21:15:16.470Z,42.27
2018-09-17T21:17:44.574Z,10.97
2018-09-17T21:20:12.738Z,10.60
2018-09-17T21:22:40.821Z,10.37
2018-09-17T21:25:09.018Z,9.67
2018-09-17T21:27:37.198Z,9.63
2018-09-17T21:30:05.579Z,36.50
2018-09-17T21:32:33.705Z,10.20
2018-09-17T21:35:01.881Z,10.10
2018-09-17T21:37:30.179Z,10.83
2018-09-17T21:39:58.306Z,10.77
2018-09-17T21:42:26.435Z,11.63
2018-09-17T21:44:54.575Z,10.80
2018-09-17T21:47:22.966Z,9.67
2018-09-17T21:49:51.126Z,10.60
2018-09-17T21:52:19.364Z,10.70
2018-09-17T21:54:47.512Z,11.03
2018-09-17T21:57:15.693Z,10.00
2018-09-17T21:59:43.837Z,9.60
2018-09-17T22:02:12.073Z,10.80
2018-09-17T22:04:40.363Z,11.00
2018-09-17T22:07:08.531Z,10.33
2018-09-17T22:09:36.726Z,10.90
2018-09-17T22:12:04.906Z,10.33
2018-09-17T22:14:33.054Z,11.27
2018-09-17T22:17:01.327Z,8.80
2018-09-17T22:19:29.576Z,9.97
2018-09-17T22:21:57.841Z,9.70
2018-09-17T22:24:26.111Z,9.17
2018-09-17T22:26:54.353Z,8.57
2018-09-17T22:29:22.609Z,9.60
2018-09-17T22:31:50.756Z,8.70
2018-09-17T22:34:18.920Z,9.27
2018-09-17T22:36:47.063Z,9.10
2018-09-17T22:39:15.217Z,10.27
2018-09-17T22:41:43.338Z,9.93
2018-09-17T22:44:11.431Z,10.60
2018-09-17T22:46:39.496Z,10.60
2018-09-17T22:49:07.985Z,10.80
2018-09-17T22:51:36.132Z,10.83
2018-09-17T22:54:04.192Z,10.13
2018-09-17T22:56:32.258Z,10.00
2018-09-17T22:59:00.354Z,10.53
2018-09-17T23:01:28.466Z,9.10
2018-09-17T23:03:56.586Z,9.93
2018-09-17T23:06:24.674Z,9.87
2018-09-17T23:08:52.781Z,9.30
2018-09-17T23:11:20.811Z,9.90
2018-09-17T23:13:48.926Z,9.10
2018-09-17T23:16:17.000Z,9.57
2018-09-17T23:18:45.199Z,9.47
2018-09-17T23:21:13.367Z,10.00
2018-09-17T23:23:41.532Z,10.00
2018-09-17T23:26:09.728Z,10.03
2018-09-17T23:28:37.916Z,10.80
2018-09-17T23:31:06.128Z,10.10
2018-09-17T23:33:34.303Z,9.37
2018-09-17T23:36:02.497Z,9.10
2018-09-17T23:38:30.710Z,9.90
2018-09-17T23:41:02.785Z,9.77
2018-09-17T23:43:30.948Z,8.87
2018-09-17T23:45:59.148Z,9.67
2018-09-17T23:48:27.612Z,10.33
2018-09-17T23:50:55.771Z,9.50
2018-09-17T23:53:23.905Z,9.80
2018-09-17T23:55:52.048Z,10.30
2018-09-17T23:58:20.208Z,9.73
